Time;durP1;ratioP1;P1;durP2;ratioP2;P2;SDS_P1;SDS_P2;PMS_P1;PMS_P2;Temp;Humidity;BMP_temperature;BMP_pressure;BME280_temperature;BME280_humidity;BME280_pressure;Samples;Min_cycle;Max_cycle;Signal;HPM_P1;HPM_P2
2023/08/23 00:00:37;;;;;;;4.70;4.40;;;24.60;99.90;;;;;;5067059;28;20510;-77
2023/08/23 00:03:14;;;;;;;5.83;4.90;;;24.50;99.90;;;;;;5066999;28;20528;-80
2023/08/23 00:05:44;;;;;;;5.80;5.30;;;24.50;99.90;;;;;;5064102;28;20526;-76
2023/08/23 00:08:15;;;;;;;6.97;5.40;;;24.50;99.90;;;;;;5066289;28;20449;-79
2023/08/23 00:10:53;;;;;;;5.73;5.23;;;24.50;99.90;;;;;;5064225;28;20456;-77
2023/08/23 00:13:25;;;;;;;7.30;4.70;;;24.40;99.90;;;;;;5059080;28;20503;-77
2023/08/23 00:15:54;;;;;;;5.40;5.00;;;24.40;99.90;;;;;;5058959;28;20458;-80
2023/08/23 00:18:25;;;;;;;5.73;5.23;;;24.40;99.90;;;;;;5058018;28;20449;-79
2023/08/23 00:20:54;;;;;;;5.13;4.73;;;24.30;99.90;;;;;;5044816;28;20773;-78
2023/08/23 00:23:22;;;;;;;6.30;5.70;;;24.30;99.90;;;;;;5039018;28;20451;-77
2023/08/23 00:25:52;;;;;;;6.10;5.60;;;24.30;99.90;;;;;;5038558;28;20482;-80
2023/08/23 00:28:21;;;;;;;5.27;4.80;;;24.20;99.90;;;;;;5039390;28;20442;-77
2023/08/23 00:30:51;;;;;;;5.20;4.70;;;24.20;99.90;;;;;;5039921;28;20474;-80
2023/08/23 00:33:20;;;;;;;5.50;5.10;;;24.10;99.90;;;;;;5040346;28;20442;-78
2023/08/23 00:35:50;;;;;;;5.63;5.10;;;24.00;99.90;;;;;;5039189;28;20469;-77
2023/08/23 00:38:21;;;;;;;5.80;5.20;;;24.00;99.90;;;;;;5039397;28;20464;-80
2023/08/23 00:40:49;;;;;;;5.97;5.20;;;24.00;99.90;;;;;;5039513;28;20452;-78
2023/08/23 00:43:25;;;;;;;7.00;5.73;;;24.00;99.90;;;;;;5039845;28;20447;-78
2023/08/23 00:45:53;;;;;;;5.37;5.00;;;23.90;99.90;;;;;;5039276;28;20505;-79
2023/08/23 00:48:22;;;;;;;7.17;5.80;;;23.90;99.90;;;;;;5039587;28;20431;-77
2023/08/23 00:50:50;;;;;;;6.23;4.87;;;23.90;99.90;;;;;;5036809;28;20966;-79
2023/08/23 00:53:18;;;;;;;5.80;5.30;;;23.80;99.90;;;;;;5037246;28;20450;-78
2023/08/23 00:55:45;;;;;;;6.00;5.50;;;23.70;99.90;;;;;;5038370;28;20443;-78
2023/08/23 00:58:14;;;;;;;5.67;5.27;;;23.70;99.90;;;;;;5038164;28;20514;-78
2023/08/23 01:00:43;;;;;;;6.77;6.17;;;23.70;99.90;;;;;;5037828;28;20488;-78
2023/08/23 01:03:11;;;;;;;5.83;5.40;;;23.80;99.90;;;;;;5036941;28;20457;-77
2023/08/23 01:05:52;;;;;;;6.40;5.90;;;23.70;99.90;;;;;;5037351;28;20478;-77
2023/08/23 01:08:30;;;;;;;6.80;5.83;;;23.70;99.90;;;;;;5036734;28;20961;-76
2023/08/23 01:11:03;;;;;;;7.00;6.30;;;23.70;99.90;;;;;;5037849;28;20454;-77
2023/08/23 01:13:40;;;;;;;6.50;5.83;;;23.60;99.90;;;;;;5044652;28;20540;-79
2023/08/23 01:16:12;;;;;;;6.03;5.53;;;23.60;99.90;;;;;;5055912;28;20471;-77
2023/08/23 01:18:42;;;;;;;10.00;5.83;;;23.50;99.90;;;;;;5054810;28;20446;-76
2023/08/23 01:21:12;;;;;;;9.57;6.30;;;23.50;99.90;;;;;;5055648;28;20441;-76
2023/08/23 01:23:42;;;;;;;7.00;6.30;;;23.50;99.90;;;;;;5054611;28;20458;-78
2023/08/23 01:26:10;;;;;;;6.13;5.63;;;23.40;99.90;;;;;;5056735;28;20469;-76
2023/08/23 01:28:47;;;;;;;6.53;6.00;;;23.40;99.90;;;;;;5056528;28;20450;-77
2023/08/23 01:31:17;;;;;;;6.80;6.30;;;23.30;99.90;;;;;;5056749;28;20724;-76
2023/08/23 01:33:52;;;;;;;6.30;5.70;;;23.30;99.90;;;;;;5056102;28;20918;-78
2023/08/23 01:36:25;;;;;;;6.50;6.00;;;23.30;99.90;;;;;;5056152;28;20471;-77
2023/08/23 01:38:56;;;;;;;6.57;6.00;;;23.30;99.90;;;;;;5055943;28;20816;-78
2023/08/23 01:41:27;;;;;;;7.57;6.20;;;23.30;99.90;;;;;;5056222;28;20509;-78
2023/08/23 01:43:55;;;;;;;5.93;5.43;;;23.30;99.90;;;;;;5055133;28;20445;-76
2023/08/23 01:46:23;;;;;;;7.27;6.70;;;23.20;99.90;;;;;;5054192;28;20481;-77
2023/08/23 01:48:50;;;;;;;7.13;6.40;;;23.20;99.90;;;;;;5054604;28;20513;-77
2023/08/23 01:51:18;;;;;;;8.13;6.33;;;23.20;99.90;;;;;;5054432;28;20477;-78
2023/08/23 01:53:46;;;;;;;6.53;6.03;;;23.20;99.90;;;;;;5053786;28;21035;-75
2023/08/23 01:56:15;;;;;;;6.87;6.17;;;23.10;99.90;;;;;;5057160;28;20466;-78
2023/08/23 01:58:51;;;;;;;8.40;6.67;;;23.00;99.90;;;;;;5054307;28;20460;-78
2023/08/23 02:01:20;;;;;;;6.97;6.40;;;22.90;99.90;;;;;;5054035;28;20819;-77
2023/08/23 02:03:49;;;;;;;6.87;6.10;;;22.90;99.90;;;;;;5054715;28;20846;-78
2023/08/23 02:06:23;;;;;;;6.83;6.33;;;22.80;99.90;;;;;;5053837;28;20899;-78
2023/08/23 02:08:52;;;;;;;7.00;6.40;;;22.80;99.90;;;;;;5053718;28;20485;-80
2023/08/23 02:11:22;;;;;;;6.80;6.17;;;22.80;99.90;;;;;;5052687;28;20527;-77
2023/08/23 02:13:49;;;;;;;7.13;6.43;;;22.70;99.90;;;;;;5053647;28;20433;-76
2023/08/23 02:16:17;;;;;;;8.77;7.33;;;22.70;99.90;;;;;;5053875;28;20515;-76
2023/08/23 02:18:53;;;;;;;6.67;6.17;;;22.80;99.90;;;;;;5054047;28;20437;-79
2023/08/23 02:21:21;;;;;;;7.20;6.50;;;22.70;99.90;;;;;;5057498;28;20825;-78
2023/08/23 02:23:49;;;;;;;7.50;6.80;;;22.70;99.90;;;;;;5056551;28;20984;-77
2023/08/23 02:26:17;;;;;;;7.80;7.20;;;22.70;99.90;;;;;;5054951;28;20485;-77
2023/08/23 02:28:47;;;;;;;7.77;6.80;;;22.60;99.90;;;;;;5054584;28;20556;-76
2023/08/23 02:31:16;;;;;;;7.50;6.83;;;22.60;99.90;;;;;;5055730;28;20448;-78
2023/08/23 02:33:44;;;;;;;8.60;7.90;;;22.70;99.90;;;;;;5058303;28;20488;-75
2023/08/23 02:36:12;;;;;;;7.00;6.40;;;22.70;99.90;;;;;;5057064;28;20461;-78
2023/08/23 02:38:39;;;;;;;10.00;7.20;;;22.60;99.90;;;;;;5055942;28;20864;-75
2023/08/23 02:41:08;;;;;;;7.13;6.60;;;22.60;99.90;;;;;;5053421;28;20450;-76
2023/08/23 02:43:38;;;;;;;7.50;6.60;;;22.60;99.90;;;;;;5053706;28;20449;-78
2023/08/23 02:46:07;;;;;;;7.87;7.07;;;22.60;99.90;;;;;;5052834;28;20474;-75
2023/08/23 02:48:35;;;;;;;7.80;7.00;;;22.60;99.90;;;;;;5052813;28;20548;-78
2023/08/23 02:51:03;;;;;;;7.87;7.00;;;22.50;99.90;;;;;;5053551;28;20488;-75
2023/08/23 02:53:30;;;;;;;8.63;7.37;;;22.50;99.90;;;;;;5052726;28;20529;-78
2023/08/23 02:55:58;;;;;;;7.77;7.07;;;22.50;99.90;;;;;;5057610;28;20446;-76
2023/08/23 02:58:26;;;;;;;7.97;7.27;;;22.40;99.90;;;;;;5057128;28;20461;-76
2023/08/23 03:00:54;;;;;;;7.73;7.00;;;22.40;99.90;;;;;;5056139;28;20480;-77
2023/08/23 03:03:26;;;;;;;7.83;6.80;;;22.40;99.90;;;;;;5056586;28;20458;-77
2023/08/23 03:05:59;;;;;;;7.80;7.20;;;22.40;99.90;;;;;;5056750;28;20449;-79
2023/08/23 03:08:30;;;;;;;6.90;6.40;;;22.40;99.90;;;;;;5057291;28;20480;-76
2023/08/23 03:11:05;;;;;;;7.97;7.17;;;22.30;99.90;;;;;;5058487;28;20492;-77
2023/08/23 03:13:36;;;;;;;7.80;6.90;;;22.30;99.90;;;;;;5057192;28;20779;-76
2023/08/23 03:16:10;;;;;;;7.87;7.33;;;22.30;99.90;;;;;;5058214;28;20458;-76
2023/08/23 03:18:40;;;;;;;7.37;6.77;;;22.30;99.90;;;;;;5058741;28;20422;-77
2023/08/23 03:21:08;;;;;;;7.97;7.37;;;22.20;99.90;;;;;;5062732;28;20476;-76
2023/08/23 03:23:36;;;;;;;7.80;7.10;;;22.20;99.90;;;;;;5055331;28;20484;-77
2023/08/23 03:26:05;;;;;;;8.07;7.47;;;22.10;99.90;;;;;;5059493;28;20570;-78
2023/08/23 03:28:32;;;;;;;8.37;7.77;;;22.10;99.90;;;;;;5059979;28;20501;-77
2023/08/23 03:31:06;;;;;;;8.23;7.63;;;22.00;99.90;;;;;;5062333;28;20549;-76
2023/08/23 03:33:34;;;;;;;8.60;7.90;;;22.00;99.90;;;;;;5063131;28;20472;-76
2023/08/23 03:36:04;;;;;;;7.60;6.93;;;22.00;99.90;;;;;;5064473;28;20542;-77
2023/08/23 03:38:32;;;;;;;8.73;7.93;;;21.90;99.90;;;;;;5065529;28;20521;-76
2023/08/23 03:41:03;;;;;;;8.43;7.60;;;21.90;99.90;;;;;;5065376;28;20496;-77
2023/08/23 03:43:31;;;;;;;8.60;8.00;;;21.80;99.90;;;;;;5070462;28;20470;-77
2023/08/23 03:46:02;;;;;;;8.67;7.77;;;21.80;99.90;;;;;;5068353;28;20468;-78
2023/08/23 03:48:30;;;;;;;8.70;7.90;;;21.90;99.90;;;;;;5068405;28;20446;-77
2023/08/23 03:50:59;;;;;;;11.50;8.20;;;21.90;99.90;;;;;;5067913;28;20493;-78
2023/08/23 03:53:29;;;;;;;8.37;7.63;;;21.90;99.90;;;;;;5068741;28;20452;-77
2023/08/23 03:55:58;;;;;;;9.40;8.30;;;21.90;99.90;;;;;;5069669;28;20500;-77
2023/08/23 03:58:27;;;;;;;8.13;7.40;;;21.80;99.90;;;;;;5071460;28;20441;-78
2023/08/23 04:00:58;;;;;;;9.70;8.73;;;21.80;99.90;;;;;;5072632;28;20480;-77
2023/08/23 04:03:27;;;;;;;9.87;8.97;;;21.70;99.90;;;;;;5072796;28;20441;-79
2023/08/23 04:05:56;;;;;;;8.70;7.90;;;21.60;99.90;;;;;;5069559;28;20477;-77
2023/08/23 04:08:34;;;;;;;8.43;7.63;;;21.60;99.90;;;;;;5069822;28;20452;-77
2023/08/23 04:11:02;;;;;;;8.90;8.20;;;21.60;99.90;;;;;;5061660;28;20445;-75
2023/08/23 04:13:30;;;;;;;8.80;7.90;;;21.60;99.90;;;;;;5060897;28;20449;-78
2023/08/23 04:15:58;;;;;;;9.00;8.20;;;21.60;99.90;;;;;;5060962;28;20521;-76
2023/08/23 04:18:26;;;;;;;8.60;7.90;;;21.50;99.90;;;;;;5065012;28;20442;-77
2023/08/23 04:21:02;;;;;;;8.50;7.77;;;21.50;99.90;;;;;;5067913;28;20465;-78
2023/08/23 04:23:31;;;;;;;11.27;8.50;;;21.50;99.90;;;;;;5070571;28;20421;-77
2023/08/23 04:26:02;;;;;;;8.83;8.07;;;21.60;99.90;;;;;;5068622;28;20529;-78
2023/08/23 04:28:33;;;;;;;9.80;7.73;;;21.60;99.90;;;;;;5071055;28;20461;-77
2023/08/23 04:31:04;;;;;;;9.60;8.80;;;21.50;99.90;;;;;;5070054;28;20434;-76
2023/08/23 04:33:34;;;;;;;8.30;7.70;;;21.50;99.90;;;;;;5070293;28;20427;-78
2023/08/23 04:36:03;;;;;;;9.13;8.40;;;21.50;99.90;;;;;;5072681;28;20472;-76
2023/08/23 04:38:32;;;;;;;8.57;7.83;;;21.50;99.90;;;;;;5071700;28;20510;-77
2023/08/23 04:41:07;;;;;;;8.97;8.00;;;21.50;99.90;;;;;;5069872;28;20452;-76
2023/08/23 04:43:35;;;;;;;9.07;8.27;;;21.50;99.90;;;;;;5069592;28;20441;-77
2023/08/23 04:46:06;;;;;;;8.17;7.50;;;21.50;99.90;;;;;;5069562;28;20536;-76
2023/08/23 04:48:34;;;;;;;8.87;8.00;;;21.50;99.90;;;;;;5070783;28;20549;-77
2023/08/23 04:51:04;;;;;;;8.93;8.13;;;21.50;99.90;;;;;;5068687;28;20458;-78
2023/08/23 04:53:32;;;;;;;9.23;8.53;;;21.40;99.90;;;;;;5059082;28;20449;-77
2023/08/23 04:56:00;;;;;;;11.70;8.90;;;21.40;99.90;;;;;;5056226;28;20480;-75
2023/08/23 04:58:30;;;;;;;8.53;7.80;;;21.50;99.90;;;;;;5057384;28;20490;-75
2023/08/23 05:01:03;;;;;;;9.10;8.40;;;21.50;99.90;;;;;;5055428;28;20856;-76
2023/08/23 05:03:32;;;;;;;8.47;7.87;;;21.60;99.90;;;;;;5060366;28;20450;-78
2023/08/23 05:06:02;;;;;;;8.93;8.23;;;21.60;99.90;;;;;;5063062;28;20513;-79
2023/08/23 05:14:15;;;;;;;8.83;8.03;;;21.60;99.90;;;;;;5048902;28;20469;-77
2023/08/23 05:17:04;;;;;;;8.90;8.17;;;21.60;99.90;;;;;;5056851;28;20477;-79
2023/08/23 05:19:33;;;;;;;9.03;8.33;;;21.60;99.90;;;;;;5057015;28;20592;-77
2023/08/23 05:22:34;;;;;;;9.40;8.60;;;21.60;99.90;;;;;;5055124;28;20460;-79
2023/08/23 05:25:09;;;;;;;11.07;9.03;;;21.60;99.90;;;;;;5056665;28;20449;-75
2023/08/23 05:28:00;;;;;;;8.97;8.10;;;21.70;99.90;;;;;;5057500;28;20507;-78
2023/08/23 05:30:31;;;;;;;8.90;8.07;;;21.70;99.90;;;;;;5055861;28;20457;-77
2023/08/23 05:32:59;;;;;;;9.40;8.60;;;21.70;99.90;;;;;;5056015;28;20530;-76
2023/08/23 05:35:27;;;;;;;8.83;7.93;;;21.70;99.90;;;;;;5055736;28;20449;-75
2023/08/23 05:37:55;;;;;;;11.60;7.80;;;21.80;99.90;;;;;;5054947;28;20456;-78
2023/08/23 05:40:23;;;;;;;9.83;8.93;;;21.80;99.90;;;;;;5054610;28;20485;-79
2023/08/23 05:42:55;;;;;;;10.00;8.83;;;21.90;99.90;;;;;;5053833;28;20473;-76
2023/08/23 05:48:09;;;;;;;9.57;8.63;;;21.90;99.90;;;;;;5021874;28;20488;-78
2023/08/23 05:50:56;;;;;;;11.07;8.20;;;22.00;99.90;;;;;;5054774;28;20544;-76
2023/08/23 05:53:36;;;;;;;10.63;8.90;;;22.00;99.90;;;;;;5055191;28;20480;-77
2023/08/23 05:56:11;;;;;;;9.37;8.63;;;21.90;99.90;;;;;;5056342;28;20473;-77
2023/08/23 05:58:45;;;;;;;10.57;9.67;;;21.90;99.90;;;;;;5059390;28;20992;-77
2023/08/23 06:01:14;;;;;;;9.63;8.93;;;22.00;99.90;;;;;;5056151;28;20503;-78
2023/08/23 06:03:47;;;;;;;9.50;8.70;;;22.20;99.90;;;;;;5055472;28;20506;-76
2023/08/23 06:06:18;;;;;;;10.30;8.60;;;22.20;99.90;;;;;;5054266;28;20462;-79
2023/08/23 06:08:46;;;;;;;9.47;8.63;;;22.30;99.90;;;;;;5054686;28;20477;-79
2023/08/23 06:11:18;;;;;;;9.80;9.07;;;22.40;99.90;;;;;;5054852;28;20500;-77
2023/08/23 06:13:46;;;;;;;9.20;8.40;;;22.40;99.90;;;;;;5056072;28;20472;-77
2023/08/23 06:16:14;;;;;;;8.80;8.13;;;22.40;99.90;;;;;;5053040;28;20505;-78
2023/08/23 06:19:00;;;;;;;8.47;7.77;;;22.50;99.90;;;;;;5054296;28;20540;-76
2023/08/23 06:21:52;;;;;;;10.00;9.10;;;22.60;99.90;;;;;;5053172;28;20445;-78
2023/08/23 06:24:22;;;;;;;9.40;7.90;;;22.70;99.90;;;;;;5035884;28;20455;-77
2023/08/23 06:26:51;;;;;;;13.03;9.57;;;22.70;99.90;;;;;;5037939;28;20649;-78
2023/08/23 06:29:19;;;;;;;10.37;9.30;;;22.70;99.90;;;;;;5040927;28;20599;-76
2023/08/23 06:31:50;;;;;;;9.27;8.57;;;22.70;99.90;;;;;;5038892;28;20558;-76
2023/08/23 06:34:23;;;;;;;11.30;8.93;;;22.80;99.90;;;;;;5036895;28;20488;-80
2023/08/23 06:36:55;;;;;;;10.30;9.30;;;22.80;99.90;;;;;;5037199;28;20545;-80
2023/08/23 06:39:26;;;;;;;10.60;9.80;;;22.80;99.90;;;;;;5036144;28;20876;-77
2023/08/23 06:44:38;;;;;;;10.30;9.27;;;22.90;99.90;;;;;;5037129;28;20453;-77
2023/08/23 06:47:07;;;;;;;11.57;9.07;;;23.10;99.90;;;;;;5034333;28;20455;-76
2023/08/23 06:49:37;;;;;;;9.67;8.77;;;23.10;99.90;;;;;;5033474;28;20454;-77
2023/08/23 06:52:06;;;;;;;16.70;9.77;;;23.10;99.90;;;;;;5032881;28;20996;-77
2023/08/23 06:54:34;;;;;;;9.53;8.47;;;23.20;99.90;;;;;;5052183;28;20956;-78
2023/08/23 06:57:04;;;;;;;9.90;9.10;;;23.30;99.90;;;;;;5053945;28;20573;-79
2023/08/23 06:59:32;;;;;;;9.57;8.73;;;23.30;99.90;;;;;;5054423;28;20458;-76
2023/08/23 07:02:06;;;;;;;10.60;9.50;;;23.50;99.90;;;;;;5056009;28;20461;-77
2023/08/23 07:04:50;;;;;;;12.20;8.80;;;23.70;99.90;;;;;;5054787;28;20453;-79
2023/08/23 07:10:16;;;;;;;9.13;8.23;;;24.00;99.90;;;;;;5048045;28;20445;-82
2023/08/23 07:12:44;;;;;;;9.23;8.33;;;24.10;99.90;;;;;;5058439;28;20504;-77
2023/08/23 07:15:13;;;;;;;10.30;7.77;;;24.10;99.90;;;;;;5055658;28;20823;-76
2023/08/23 07:17:40;;;;;;;8.93;8.13;;;24.20;99.90;;;;;;5057107;28;20457;-77
2023/08/23 07:20:13;;;;;;;10.27;9.37;;;24.20;99.90;;;;;;5063329;28;20507;-76
2023/08/23 07:22:41;;;;;;;9.27;8.47;;;24.30;99.90;;;;;;5060631;28;21002;-76
2023/08/23 07:25:12;;;;;;;10.07;8.20;;;24.40;99.90;;;;;;5063923;28;20798;-76
2023/08/23 07:27:41;;;;;;;8.93;8.07;;;24.40;99.90;;;;;;5061135;28;20481;-77
2023/08/23 07:30:09;;;;;;;7.37;6.80;;;24.40;99.90;;;;;;5062130;28;20454;-77
2023/08/23 07:32:37;;;;;;;8.40;7.57;;;24.50;99.90;;;;;;5065482;28;20503;-78
2023/08/23 07:35:07;;;;;;;9.30;8.40;;;24.60;99.90;;;;;;5062721;28;20446;-77
2023/08/23 07:37:36;;;;;;;8.50;7.83;;;24.60;99.90;;;;;;5063461;28;20465;-77
2023/08/23 07:40:06;;;;;;;9.00;7.80;;;24.70;99.90;;;;;;5064849;28;20943;-76
2023/08/23 07:42:34;;;;;;;8.83;7.97;;;24.70;99.90;;;;;;5063953;28;20465;-77
2023/08/23 07:45:01;;;;;;;8.10;7.37;;;24.80;99.90;;;;;;5068507;28;20514;-79
2023/08/23 07:47:29;;;;;;;8.00;7.20;;;24.90;99.90;;;;;;5060445;28;20972;-78
2023/08/23 07:49:56;;;;;;;7.87;7.00;;;25.10;99.90;;;;;;5061017;28;20441;-79
2023/08/23 07:52:24;;;;;;;10.03;7.63;;;25.20;99.90;;;;;;5060265;28;20454;-76
2023/08/23 07:54:53;;;;;;;8.60;7.83;;;25.30;99.90;;;;;;5064579;28;20425;-77
2023/08/23 07:57:21;;;;;;;8.80;6.93;;;25.30;99.90;;;;;;5066754;28;20473;-77
2023/08/23 07:59:48;;;;;;;7.93;7.33;;;25.30;99.90;;;;;;5065108;28;20445;-79
2023/08/23 08:02:16;;;;;;;8.50;7.70;;;25.50;99.90;;;;;;5063800;28;20430;-76
2023/08/23 08:04:45;;;;;;;7.90;7.10;;;25.20;99.90;;;;;;5064144;28;20445;-77
2023/08/23 08:07:12;;;;;;;9.70;8.30;;;25.20;99.90;;;;;;5064261;28;20466;-80
2023/08/23 08:09:41;;;;;;;12.83;8.13;;;25.50;99.90;;;;;;5066204;28;20441;-78
2023/08/23 08:12:13;;;;;;;8.43;7.73;;;25.80;99.90;;;;;;5063426;28;20449;-79
2023/08/23 08:14:41;;;;;;;11.17;7.77;;;25.90;99.90;;;;;;5065542;28;20442;-79
2023/08/23 08:17:10;;;;;;;8.40;7.70;;;26.00;99.90;;;;;;5065913;28;20462;-79
2023/08/23 08:19:39;;;;;;;8.23;7.63;;;25.50;99.90;;;;;;5066286;28;20441;-77
2023/08/23 08:22:07;;;;;;;9.13;8.43;;;25.90;99.90;;;;;;5068425;28;20521;-78
2023/08/23 08:24:36;;;;;;;7.80;7.10;;;26.00;99.90;;;;;;5067494;28;20480;-79
2023/08/23 08:27:04;;;;;;;8.33;7.60;;;26.20;99.90;;;;;;5065865;28;20473;-78
2023/08/23 08:29:34;;;;;;;8.53;7.30;;;26.50;99.90;;;;;;5068666;28;20473;-78
2023/08/23 08:32:02;;;;;;;8.77;8.07;;;26.50;99.90;;;;;;5065988;28;20436;-80
2023/08/23 08:34:30;;;;;;;8.27;7.53;;;26.30;99.90;;;;;;5067996;28;20457;-79
2023/08/23 08:36:57;;;;;;;7.30;6.60;;;26.50;99.90;;;;;;5067446;28;20487;-78
2023/08/23 08:39:25;;;;;;;7.30;6.70;;;26.90;99.90;;;;;;5067807;28;20449;-78
2023/08/23 08:41:53;;;;;;;8.30;7.70;;;27.10;99.90;;;;;;5065491;28;20450;-80
2023/08/23 08:44:24;;;;;;;7.53;7.00;;;27.00;99.90;;;;;;5065728;28;20465;-79
2023/08/23 08:46:54;;;;;;;7.77;7.10;;;27.00;99.90;;;;;;5067302;28;20465;-80
2023/08/23 08:49:21;;;;;;;6.60;6.10;;;27.10;99.90;;;;;;5066395;28;20478;-78
2023/08/23 08:51:50;;;;;;;8.70;6.40;;;27.30;99.90;;;;;;5064908;28;20507;-79
2023/08/23 08:54:20;;;;;;;8.10;7.30;;;27.50;99.90;;;;;;5067214;28;20466;-80
2023/08/23 08:56:49;;;;;;;7.23;6.63;;;27.70;99.90;;;;;;5069667;28;20469;-79
2023/08/23 08:59:17;;;;;;;8.00;6.97;;;27.70;99.90;;;;;;5063720;28;20465;-78
2023/08/23 09:01:46;;;;;;;9.10;6.80;;;28.20;99.90;;;;;;5067177;28;20532;-81
2023/08/23 09:04:16;;;;;;;8.17;7.43;;;28.40;99.90;;;;;;5068753;28;20446;-76
2023/08/23 09:06:46;;;;;;;7.00;6.50;;;28.70;99.90;;;;;;5070489;28;20509;-77
2023/08/23 09:09:15;;;;;;;7.10;6.60;;;28.70;99.90;;;;;;5065993;28;20523;-79
2023/08/23 09:11:43;;;;;;;7.30;6.60;;;28.60;99.90;;;;;;5064253;28;20545;-77
2023/08/23 09:14:19;;;;;;;8.30;6.73;;;28.80;99.90;;;;;;5057878;28;20441;-76
2023/08/23 09:16:47;;;;;;;6.70;6.00;;;29.00;99.90;;;;;;5055528;28;20788;-77
2023/08/23 09:19:16;;;;;;;7.93;7.13;;;28.90;99.90;;;;;;5053829;28;20442;-78
2023/08/23 09:21:44;;;;;;;6.93;6.33;;;29.20;99.90;;;;;;5054785;28;20497;-78
2023/08/23 09:24:12;;;;;;;7.07;6.57;;;29.60;99.90;;;;;;5054421;28;20438;-80
2023/08/23 09:26:45;;;;;;;6.60;6.00;;;29.60;99.90;;;;;;5055937;28;20568;-78
2023/08/23 09:29:14;;;;;;;7.47;6.73;;;29.60;99.90;;;;;;5053294;28;20469;-80
2023/08/23 09:31:42;;;;;;;9.90;6.40;;;29.70;99.90;;;;;;5052930;28;20465;-79
2023/08/23 09:34:15;;;;;;;7.30;6.50;;;30.00;99.90;;;;;;5052934;28;20456;-79
2023/08/23 09:36:43;;;;;;;6.93;6.20;;;30.30;99.90;;;;;;5052902;28;20478;-75
2023/08/23 09:39:12;;;;;;;6.17;5.70;;;30.50;99.90;;;;;;5052688;28;20441;-78
2023/08/23 09:41:41;;;;;;;6.90;6.20;;;30.50;99.90;;;;;;5055804;28;20437;-78
2023/08/23 09:44:09;;;;;;;6.53;6.13;;;30.80;99.90;;;;;;5059949;28;20452;-77
2023/08/23 09:46:40;;;;;;;6.47;5.83;;;30.80;99.90;;;;;;5064701;28;20462;-78
2023/08/23 09:49:14;;;;;;;7.20;6.50;;;30.90;99.90;;;;;;5056483;28;20481;-79
2023/08/23 09:51:44;;;;;;;6.47;5.90;;;30.80;99.90;;;;;;5053620;28;20453;-76
2023/08/23 09:54:19;;;;;;;6.20;5.60;;;30.70;99.90;;;;;;5058839;28;20446;-77
2023/08/23 09:56:48;;;;;;;7.20;6.10;;;30.90;99.90;;;;;;5066323;28;20485;-77
2023/08/23 09:59:18;;;;;;;6.60;6.10;;;31.20;99.90;;;;;;5052696;28;20450;-81
2023/08/23 10:01:48;;;;;;;5.70;5.30;;;31.40;99.90;;;;;;5052969;28;20440;-78
2023/08/23 10:04:17;;;;;;;6.43;5.93;;;31.40;99.90;;;;;;5051861;28;20484;-77
2023/08/23 10:06:48;;;;;;;6.63;6.03;;;31.60;99.90;;;;;;5052130;28;21001;-77
2023/08/23 10:09:18;;;;;;;7.60;6.90;;;31.80;99.90;;;;;;5052072;28;20469;-79
2023/08/23 10:11:46;;;;;;;5.63;5.13;;;31.90;99.90;;;;;;5052422;28;20442;-80
2023/08/23 10:14:14;;;;;;;6.20;5.70;;;32.10;99.90;;;;;;5052229;28;20461;-78
2023/08/23 10:16:44;;;;;;;8.10;5.70;;;32.10;99.90;;;;;;5052271;28;20478;-77
2023/08/23 10:19:11;;;;;;;6.57;6.03;;;31.90;99.90;;;;;;5052370;28;20446;-79
2023/08/23 10:21:39;;;;;;;6.13;5.63;;;32.10;99.90;;;;;;5052373;28;20582;-78
2023/08/23 10:24:09;;;;;;;6.70;6.07;;;32.30;99.90;;;;;;5051904;28;20480;-78
2023/08/23 10:26:49;;;;;;;6.10;5.60;;;32.10;99.90;;;;;;5051997;28;20461;-78
2023/08/23 10:29:25;;;;;;;6.63;5.50;;;32.30;99.90;;;;;;5052179;28;20473;-78
2023/08/23 10:31:54;;;;;;;6.60;6.07;;;32.10;99.90;;;;;;5052367;28;20454;-77
2023/08/23 10:34:31;;;;;;;5.93;5.37;;;31.60;99.90;;;;;;5051538;28;20472;-78
2023/08/23 10:36:59;;;;;;;6.30;5.70;;;31.40;99.90;;;;;;5052168;28;20473;-79
2023/08/23 10:39:28;;;;;;;6.07;5.67;;;31.80;99.90;;;;;;5051565;28;20446;-76
2023/08/23 10:41:56;;;;;;;5.93;5.43;;;32.40;99.90;;;;;;5051526;28;20449;-78
2023/08/23 10:44:24;;;;;;;7.27;5.30;;;32.60;99.90;;;;;;5051261;28;20433;-78
2023/08/23 10:46:52;;;;;;;5.57;5.07;;;33.00;99.90;;;;;;5051615;28;20466;-78
2023/08/23 10:49:21;;;;;;;6.47;5.93;;;33.00;99.90;;;;;;5051608;28;20484;-78
2023/08/23 10:51:49;;;;;;;6.57;5.97;;;33.30;99.90;;;;;;5057872;28;20449;-79
2023/08/23 10:54:17;;;;;;;6.27;5.80;;;33.10;99.90;;;;;;5057753;28;20499;-78
2023/08/23 10:56:48;;;;;;;5.13;4.83;;;32.80;99.90;;;;;;5057729;28;21016;-78
2023/08/23 10:59:16;;;;;;;5.40;5.00;;;33.10;99.90;;;;;;5058012;28;20454;-79
2023/08/23 11:01:44;;;;;;;7.40;5.57;;;33.50;99.90;;;;;;5058100;28;20457;-77
2023/08/23 11:04:13;;;;;;;5.70;5.20;;;33.70;99.90;;;;;;5057865;28;20552;-78
2023/08/23 11:06:46;;;;;;;5.43;5.10;;;33.90;99.90;;;;;;5058093;28;20566;-78
2023/08/23 11:09:17;;;;;;;5.60;5.10;;;34.10;99.90;;;;;;5058111;28;20870;-78
2023/08/23 11:11:49;;;;;;;5.73;5.23;;;34.00;99.90;;;;;;5058248;28;20452;-77
2023/08/23 11:14:20;;;;;;;6.10;5.47;;;34.20;99.90;;;;;;5057918;28;20473;-78
2023/08/23 11:16:49;;;;;;;6.00;5.50;;;33.90;99.90;;;;;;5058455;28;20466;-77
2023/08/23 11:19:17;;;;;;;5.73;5.23;;;34.10;99.90;;;;;;5058632;28;20445;-78
2023/08/23 11:21:48;;;;;;;5.47;5.07;;;34.30;99.90;;;;;;5057710;28;20491;-77
2023/08/23 11:24:18;;;;;;;5.23;4.83;;;34.60;99.90;;;;;;5058464;28;20453;-81
2023/08/23 11:26:49;;;;;;;5.50;4.80;;;34.30;99.90;;;;;;5058570;28;20468;-77
2023/08/23 11:29:21;;;;;;;5.27;4.87;;;34.20;99.90;;;;;;5058225;28;20485;-78
2023/08/23 11:32:08;;;;;;;5.40;4.90;;;32.80;99.90;;;;;;5058577;28;20457;-80
2023/08/23 11:34:37;;;;;;;4.97;4.57;;;32.70;99.90;;;;;;5058096;28;20457;-79
2023/08/23 11:37:10;;;;;;;6.93;4.50;;;32.80;99.90;;;;;;5057650;28;20465;-78
2023/08/23 11:39:39;;;;;;;5.90;5.50;;;33.90;99.90;;;;;;5058801;28;20445;-76
2023/08/23 11:42:20;;;;;;;5.23;4.60;;;34.40;99.90;;;;;;5059850;28;20483;-79
2023/08/23 11:44:53;;;;;;;5.67;5.17;;;34.50;99.90;;;;;;5062630;28;20457;-77
2023/08/23 11:47:37;;;;;;;5.53;5.10;;;34.40;99.70;;;;;;5061150;28;20477;-77
2023/08/23 11:50:22;;;;;;;5.80;5.27;;;33.70;99.90;;;;;;5060883;28;20546;-78
2023/08/23 11:53:00;;;;;;;5.20;4.87;;;33.70;99.90;;;;;;5060293;28;20870;-78
2023/08/23 11:55:59;;;;;;;5.27;4.87;;;34.70;99.10;;;;;;5060591;28;20520;-77
2023/08/23 11:58:29;;;;;;;5.70;5.20;;;34.70;99.20;;;;;;5057350;28;20476;-78
2023/08/23 12:00:59;;;;;;;6.77;5.30;;;34.80;99.40;;;;;;5059142;28;20445;-77
2023/08/23 12:03:33;;;;;;;6.13;5.60;;;34.40;99.90;;;;;;5055211;28;20479;-78
2023/08/23 12:06:06;;;;;;;5.17;4.77;;;34.30;99.90;;;;;;5055258;28;20468;-76
2023/08/23 12:08:35;;;;;;;5.63;5.10;;;35.20;98.70;;;;;;5056764;28;20477;-77
2023/08/23 12:11:03;;;;;;;8.57;5.23;;;34.00;99.60;;;;;;5055553;28;20891;-78
2023/08/23 12:13:46;;;;;;;7.00;4.93;;;35.10;98.40;;;;;;5057530;28;20453;-78
2023/08/23 12:16:18;;;;;;;4.93;4.63;;;35.30;98.30;;;;;;5055694;28;20466;-81
2023/08/23 12:18:48;;;;;;;4.80;4.37;;;34.40;98.60;;;;;;5056717;28;20777;-80
2023/08/23 12:21:17;;;;;;;5.83;5.43;;;34.90;98.30;;;;;;5054321;28;20484;-78
2023/08/23 12:24:07;;;;;;;5.93;4.50;;;35.50;98.10;;;;;;5056786;28;20520;-78
2023/08/23 12:26:46;;;;;;;5.10;4.60;;;36.50;95.40;;;;;;5054694;28;20480;-78
2023/08/23 12:29:22;;;;;;;5.63;5.10;;;36.30;95.40;;;;;;5055861;28;21113;-79
2023/08/23 12:31:50;;;;;;;7.07;4.50;;;35.10;96.80;;;;;;5058315;28;20483;-79
2023/08/23 12:34:18;;;;;;;6.40;5.80;;;34.70;96.70;;;;;;5056916;28;20449;-76
2023/08/23 12:36:49;;;;;;;5.30;4.80;;;34.80;96.90;;;;;;5064760;28;20450;-78
2023/08/23 12:39:17;;;;;;;5.73;5.33;;;33.60;97.90;;;;;;5072625;28;20426;-77
2023/08/23 12:41:46;;;;;;;5.50;5.07;;;34.20;97.60;;;;;;5071574;28;20454;-80
2023/08/23 12:44:13;;;;;;;4.90;4.60;;;34.20;97.80;;;;;;5067925;28;20492;-80
2023/08/23 12:46:42;;;;;;;5.33;4.60;;;;;;;;;;5067209;28;20453;-78
2023/08/23 12:49:12;;;;;;;6.97;5.47;;;34.60;97.50;;;;;;5057147;28;20631;-78
2023/08/23 12:51:40;;;;;;;5.60;5.00;;;35.00;97.00;;;;;;5055555;28;21099;-78
2023/08/23 12:54:08;;;;;;;5.27;4.77;;;33.90;97.50;;;;;;5057879;28;20433;-78
2023/08/23 12:56:42;;;;;;;6.10;4.87;;;33.60;98.30;;;;;;5059339;28;20529;-80
2023/08/23 12:59:13;;;;;;;5.07;4.77;;;33.90;98.60;;;;;;5058668;28;20454;-78
2023/08/23 13:01:43;;;;;;;8.03;4.80;;;34.10;98.60;;;;;;5057724;28;20542;-79
2023/08/23 13:04:11;;;;;;;6.50;5.00;;;35.00;97.30;;;;;;5058701;28;20429;-78
2023/08/23 13:06:39;;;;;;;6.20;4.60;;;34.80;96.70;;;;;;5056839;28;20528;-77
2023/08/23 13:09:07;;;;;;;4.93;4.63;;;33.80;97.80;;;;;;5059209;28;20453;-78
2023/08/23 13:11:37;;;;;;;5.50;5.10;;;34.10;98.40;;;;;;5059634;28;20509;-78
2023/08/23 13:14:05;;;;;;;5.97;4.53;;;35.10;97.00;;;;;;5058184;28;20453;-78
2023/08/23 13:16:33;;;;;;;5.43;4.93;;;35.10;97.30;;;;;;5056098;28;20457;-77